createdAt,value
2023-02-14T00:01:10.831Z,9.00
2023-02-14T00:03:38.039Z,8.87
2023-02-14T00:06:09.197Z,8.77
2023-02-14T00:08:36.817Z,10.07
2023-02-14T00:11:05.492Z,8.77
2023-02-14T00:13:32.653Z,8.90
2023-02-14T00:15:59.508Z,8.97
2023-02-14T00:18:46.760Z,9.57
2023-02-14T00:21:13.424Z,8.40
2023-02-14T00:23:40.655Z,8.57
2023-02-14T00:26:14.025Z,9.60
2023-02-14T00:28:40.691Z,8.97
2023-02-14T00:31:07.475Z,9.53
2023-02-14T00:33:34.309Z,9.33
2023-02-14T00:36:07.410Z,9.13
2023-02-14T00:38:35.048Z,9.23
2023-02-14T00:41:02.413Z,9.13
2023-02-14T00:43:29.726Z,9.43
2023-02-14T00:45:56.909Z,8.50
2023-02-14T00:48:23.763Z,8.97
2023-02-14T00:50:50.430Z,9.60
2023-02-14T00:53:17.319Z,9.23
2023-02-14T00:55:46.660Z,9.73
2023-02-14T00:58:13.454Z,9.43
2023-02-14T01:00:40.359Z,9.40
2023-02-14T01:03:07.431Z,9.70
2023-02-14T01:05:34.176Z,10.07
2023-02-14T01:08:00.865Z,10.00
2023-02-14T01:10:27.684Z,9.60
2023-02-14T01:12:54.468Z,8.80
2023-02-14T01:15:21.224Z,9.03
2023-02-14T01:17:47.912Z,9.47
2023-02-14T01:20:14.808Z,9.13
2023-02-14T01:22:42.400Z,8.87
2023-02-14T01:25:09.312Z,10.23
2023-02-14T01:27:37.544Z,8.90
2023-02-14T01:30:05.493Z,9.23
2023-02-14T01:32:35.775Z,10.97
2023-02-14T01:35:02.617Z,10.17
2023-02-14T01:37:31.253Z,11.37
2023-02-14T01:39:59.110Z,11.77
2023-02-14T01:42:25.962Z,10.30
2023-02-14T01:45:07.054Z,10.73
2023-02-14T01:47:38.964Z,8.57
2023-02-14T01:50:33.577Z,9.93
2023-02-14T01:53:05.389Z,10.10
2023-02-14T01:55:36.392Z,9.60
2023-02-14T01:58:11.830Z,9.33
2023-02-14T02:00:59.181Z,9.80
2023-02-14T02:03:33.160Z,9.97
2023-02-14T02:06:31.011Z,10.17
2023-02-14T02:09:20.576Z,9.20
2023-02-14T02:11:49.828Z,9.77
2023-02-14T02:14:19.999Z,9.83
2023-02-14T02:17:27.608Z,9.60
2023-02-14T02:20:13.412Z,10.27
2023-02-14T02:23:05.727Z,10.10
2023-02-14T02:26:10.530Z,10.73
2023-02-14T02:28:49.457Z,9.97
2023-02-14T02:31:38.382Z,9.97
2023-02-14T02:34:50.600Z,10.37
2023-02-14T02:37:41.791Z,9.67
2023-02-14T02:40:39.839Z,10.63
2023-02-14T02:43:35.588Z,10.23
2023-02-14T02:46:39.123Z,11.40
2023-02-14T02:49:52.086Z,12.57
2023-02-14T02:53:03.122Z,12.93
2023-02-14T02:55:59.631Z,13.53
2023-02-14T02:58:32.589Z,14.67
2023-02-14T03:01:04.519Z,14.53
2023-02-14T03:03:52.065Z,15.07
2023-02-14T03:06:20.820Z,16.23
2023-02-14T03:08:47.622Z,17.20
2023-02-14T03:11:18.609Z,17.57
2023-02-14T03:13:52.117Z,17.17
2023-02-14T03:16:22.104Z,16.83
2023-02-14T03:19:44.960Z,17.37
2023-02-14T03:22:41.044Z,18.17
2023-02-14T03:25:21.471Z,18.60
2023-02-14T03:28:22.075Z,17.63
2023-02-14T03:31:03.001Z,18.30
2023-02-14T03:34:07.471Z,18.37
2023-02-14T03:37:25.551Z,19.10
2023-02-14T03:40:01.286Z,19.70
2023-02-14T03:42:35.234Z,19.70
2023-02-14T03:45:06.226Z,20.87
2023-02-14T03:47:36.158Z,20.93
2023-02-14T03:50:11.909Z,21.23
2023-02-14T03:52:41.137Z,20.97
2023-02-14T03:55:09.872Z,21.97
2023-02-14T03:57:52.322Z,21.40
2023-02-14T04:00:19.936Z,22.10
2023-02-14T04:02:50.961Z,22.13
2023-02-14T04:05:21.541Z,22.40
2023-02-14T04:07:51.994Z,21.60
2023-02-14T04:10:19.946Z,20.97
2023-02-14T04:12:47.460Z,22.10
2023-02-14T04:15:17.229Z,22.43
2023-02-14T04:18:03.227Z,21.00
2023-02-14T04:20:30.623Z,18.93
2023-02-14T04:22:57.677Z,19.93
2023-02-14T04:25:24.383Z,18.73
2023-02-14T04:27:51.167Z,18.53
2023-02-14T04:30:18.470Z,18.30
2023-02-14T04:32:45.302Z,18.00
2023-02-14T04:35:12.291Z,16.47
2023-02-14T04:37:39.495Z,15.93
2023-02-14T04:40:06.942Z,16.87
2023-02-14T04:42:33.963Z,16.30
2023-02-14T04:45:03.137Z,17.50
2023-02-14T04:47:30.821Z,17.03
2023-02-14T04:49:57.623Z,17.60
2023-02-14T04:52:24.565Z,17.07
2023-02-14T04:54:51.237Z,18.20
2023-02-14T04:57:18.457Z,17.13
2023-02-14T04:59:45.162Z,17.77
2023-02-14T05:02:12.013Z,16.83
2023-02-14T05:04:39.499Z,17.57
2023-02-14T05:07:06.307Z,18.03
2023-02-14T05:09:33.142Z,17.23
2023-02-14T05:11:59.837Z,16.30
2023-02-14T05:14:26.723Z,18.13
2023-02-14T05:16:53.571Z,17.50
2023-02-14T05:19:20.313Z,18.00
2023-02-14T05:21:47.178Z,18.10
2023-02-14T05:24:13.880Z,18.37
2023-02-14T05:26:41.104Z,17.23
2023-02-14T05:29:08.176Z,18.07
2023-02-14T05:31:35.095Z,17.70
2023-02-14T05:34:01.988Z,18.33
2023-02-14T05:36:28.826Z,18.73
2023-02-14T05:38:55.563Z,18.60
2023-02-14T05:41:24.039Z,17.80
2023-02-14T05:43:51.089Z,17.97
2023-02-14T05:46:18.969Z,18.00
2023-02-14T05:48:46.485Z,19.83
2023-02-14T05:51:13.931Z,21.50
2023-02-14T05:53:40.907Z,19.90
2023-02-14T05:56:08.036Z,20.60
2023-02-14T05:58:34.829Z,18.70
2023-02-14T06:01:02.069Z,20.10
2023-02-14T06:03:28.999Z,18.67
2023-02-14T06:05:55.769Z,19.93
2023-02-14T06:08:22.764Z,19.00
2023-02-14T06:10:49.552Z,19.80
2023-02-14T06:13:16.271Z,19.07
2023-02-14T06:15:43.086Z,20.33
2023-02-14T06:18:09.950Z,19.97
2023-02-14T06:20:36.885Z,19.70
2023-02-14T06:23:03.664Z,20.27
2023-02-14T06:25:30.552Z,20.87
2023-02-14T06:27:58.734Z,20.30
2023-02-14T06:30:25.917Z,21.50
2023-02-14T06:32:53.177Z,20.20
2023-02-14T06:35:21.355Z,19.67
2023-02-14T06:37:48.364Z,20.17
2023-02-14T06:40:15.173Z,19.37
2023-02-14T06:42:41.932Z,21.07
2023-02-14T06:45:09.320Z,20.40
2023-02-14T06:47:36.128Z,20.67
2023-02-14T06:50:05.170Z,19.67
2023-02-14T06:52:33.255Z,21.57
2023-02-14T06:55:00.100Z,20.50
2023-02-14T06:57:27.036Z,21.20
2023-02-14T06:59:54.031Z,20.03
2023-02-14T07:02:22.824Z,20.73
2023-02-14T07:04:51.136Z,19.57
2023-02-14T07:07:17.905Z,20.60
2023-02-14T07:09:44.808Z,20.73
2023-02-14T07:12:11.598Z,21.50
2023-02-14T07:14:38.372Z,21.83
2023-02-14T07:17:05.176Z,21.97
2023-02-14T07:19:31.928Z,20.43
2023-02-14T07:21:58.636Z,20.90
2023-02-14T07:24:25.527Z,19.87
2023-02-14T07:26:52.387Z,20.93
2023-02-14T07:29:19.160Z,20.70
2023-02-14T07:31:46.048Z,20.57
2023-02-14T07:34:13.012Z,21.40
2023-02-14T07:36:39.886Z,20.30
2023-02-14T07:39:06.692Z,19.93
2023-02-14T07:41:33.560Z,20.77
2023-02-14T07:44:00.310Z,19.23
2023-02-14T07:46:27.183Z,20.87
2023-02-14T07:48:54.103Z,18.63
2023-02-14T07:51:20.923Z,21.57
2023-02-14T07:53:48.472Z,19.27
2023-02-14T07:56:15.245Z,19.53
2023-02-14T07:58:42.076Z,19.47
2023-02-14T08:01:08.953Z,21.20
2023-02-14T08:03:35.669Z,19.07
2023-02-14T08:06:02.430Z,19.63
2023-02-14T08:08:30.963Z,21.13
2023-02-14T08:10:58.432Z,20.27
2023-02-14T08:13:26.062Z,20.37
2023-02-14T08:16:05.414Z,21.07
2023-02-14T08:18:35.638Z,20.03
2023-02-14T08:21:02.947Z,19.03
2023-02-14T08:23:29.951Z,21.43
2023-02-14T08:25:57.115Z,21.53
2023-02-14T08:28:24.132Z,21.67
2023-02-14T08:30:51.523Z,20.50
2023-02-14T08:33:18.966Z,19.80
2023-02-14T08:35:45.901Z,19.97
2023-02-14T08:38:12.929Z,19.67
2023-02-14T08:40:39.792Z,20.73
2023-02-14T08:43:07.458Z,18.67
2023-02-14T08:45:34.761Z,19.57
2023-02-14T08:48:10.251Z,20.27
2023-02-14T08:50:38.139Z,18.97
2023-02-14T08:53:09.603Z,20.80
2023-02-14T08:55:36.907Z,21.30
2023-02-14T08:58:04.134Z,20.30
2023-02-14T09:00:32.331Z,20.27
2023-02-14T09:02:59.740Z,20.40
2023-02-14T09:05:27.006Z,19.70
2023-02-14T09:07:56.432Z,19.97
2023-02-14T09:10:24.793Z,20.80
2023-02-14T09:12:52.063Z,20.40
2023-02-14T09:15:19.031Z,20.80
2023-02-14T09:17:46.648Z,20.13
2023-02-14T09:20:15.517Z,20.23
2023-02-14T09:22:42.347Z,19.37
2023-02-14T09:25:09.867Z,19.63
2023-02-14T09:27:36.998Z,19.53
2023-02-14T09:30:05.974Z,20.03
2023-02-14T09:32:32.939Z,20.33
2023-02-14T09:35:00.312Z,20.23
2023-02-14T09:37:27.127Z,22.27
2023-02-14T09:39:53.831Z,20.17
2023-02-14T09:42:49.357Z,19.87
2023-02-14T09:45:21.560Z,21.53
2023-02-14T09:47:57.378Z,21.27
2023-02-14T09:50:30.343Z,20.67
2023-02-14T09:53:00.998Z,21.70
2023-02-14T09:55:37.283Z,21.00
2023-02-14T09:58:17.585Z,20.57
2023-02-14T10:01:00.493Z,20.43
2023-02-14T10:03:49.293Z,20.57
2023-02-14T10:06:40.655Z,20.43
2023-02-14T10:09:39.237Z,20.30
2023-02-14T10:12:14.456Z,19.73
2023-02-14T10:14:41.461Z,20.13
2023-02-14T10:17:14.334Z,20.87
2023-02-14T10:19:48.406Z,20.13
2023-02-14T10:22:18.472Z,20.53
2023-02-14T10:25:06.756Z,20.33
2023-02-14T10:27:33.435Z,20.07
2023-02-14T10:30:00.460Z,20.43
2023-02-14T10:32:51.495Z,20.47
2023-02-14T10:35:43.184Z,19.60
2023-02-14T10:38:30.179Z,22.13
2023-02-14T10:41:15.533Z,20.47
2023-02-14T10:44:00.735Z,20.80
2023-02-14T10:46:33.371Z,20.93
2023-02-14T10:49:00.041Z,21.17
2023-02-14T10:51:35.985Z,22.03
2023-02-14T10:54:22.963Z,21.27
2023-02-14T10:57:00.544Z,23.40
2023-02-14T10:59:42.636Z,20.57
2023-02-14T11:02:14.395Z,22.47
2023-02-14T11:04:42.238Z,21.53
2023-02-14T11:07:17.342Z,21.67
2023-02-14T11:09:44.423Z,21.73
2023-02-14T11:12:11.353Z,22.17
2023-02-14T11:14:40.044Z,22.00
2023-02-14T11:17:30.995Z,21.87
2023-02-14T11:20:06.438Z,22.70
2023-02-14T11:22:35.274Z,22.83
2023-02-14T11:25:08.406Z,20.73
2023-02-14T11:27:37.938Z,21.40
2023-02-14T11:30:18.771Z,23.10
2023-02-14T11:32:55.174Z,22.90
2023-02-14T11:35:27.550Z,20.97
2023-02-14T11:37:56.678Z,23.60
2023-02-14T11:40:38.415Z,22.97
2023-02-14T11:43:14.300Z,24.00
2023-02-14T11:45:43.649Z,23.53
2023-02-14T11:48:36.826Z,23.83
2023-02-14T11:51:11.128Z,23.23
2023-02-14T11:53:40.837Z,22.40
2023-02-14T11:56:07.650Z,24.10
2023-02-14T11:58:37.565Z,23.33
2023-02-14T12:01:05.340Z,25.90
2023-02-14T12:03:45.153Z,23.20
2023-02-14T12:06:13.701Z,22.43
2023-02-14T12:08:42.055Z,24.13
2023-02-14T12:11:19.333Z,23.47
2023-02-14T12:13:53.836Z,23.10
2023-02-14T12:16:29.165Z,22.87
2023-02-14T12:19:17.459Z,24.03
2023-02-14T12:21:55.278Z,23.33
2023-02-14T12:24:30.827Z,23.03
2023-02-14T12:27:04.704Z,23.13
2023-02-14T12:29:44.924Z,23.47
2023-02-14T12:32:32.761Z,24.30
2023-02-14T12:35:22.132Z,24.60
2023-02-14T12:38:09.388Z,24.70
2023-02-14T12:41:11.047Z,25.30
2023-02-14T12:43:52.611Z,23.93
2023-02-14T12:46:41.368Z,24.70
2023-02-14T12:49:26.220Z,23.13
2023-02-14T12:52:38.927Z,25.50
2023-02-14T12:55:35.103Z,26.03
2023-02-14T12:58:30.664Z,25.27
2023-02-14T13:01:32.872Z,25.53
2023-02-14T13:04:08.999Z,24.83
2023-02-14T13:06:48.101Z,26.57
2023-02-14T13:09:18.988Z,23.53
2023-02-14T13:12:16.171Z,24.83
2023-02-14T13:15:08.608Z,24.83
2023-02-14T13:17:53.033Z,24.30
2023-02-14T13:20:44.750Z,24.53
2023-02-14T13:23:31.618Z,23.23
2023-02-14T13:26:27.266Z,23.70
2023-02-14T13:29:12.330Z,23.97
2023-02-14T13:31:47.131Z,24.30
2023-02-14T13:34:39.183Z,23.67
2023-02-14T13:37:11.999Z,24.17
2023-02-14T13:39:52.819Z,22.67
2023-02-14T13:42:49.568Z,22.63
2023-02-14T13:45:41.663Z,22.37
2023-02-14T13:48:17.812Z,23.90
2023-02-14T13:51:04.941Z,22.87
2023-02-14T13:53:45.880Z,21.73
2023-02-14T13:56:14.107Z,23.23
2023-02-14T13:59:11.218Z,23.60
2023-02-14T14:01:51.094Z,25.60
2023-02-14T14:04:28.925Z,22.70
2023-02-14T14:07:25.327Z,24.10
2023-02-14T14:12:43.299Z,25.20
2023-02-14T14:15:18.319Z,24.03
2023-02-14T14:18:07.831Z,25.47
2023-02-14T14:20:45.162Z,24.47
2023-02-14T14:23:34.303Z,26.07
2023-02-14T14:29:28.748Z,22.73
2023-02-14T14:32:03.033Z,22.90
2023-02-14T14:34:35.115Z,22.57
2023-02-14T14:37:30.553Z,22.87
2023-02-14T14:40:49.240Z,22.43
2023-02-14T14:43:39.870Z,21.73
2023-02-14T14:46:11.385Z,22.77
2023-02-14T14:48:43.121Z,21.37
2023-02-14T14:51:22.581Z,23.63
2023-02-14T14:53:57.306Z,19.93
2023-02-14T14:56:27.229Z,20.77
2023-02-14T14:58:54.531Z,21.37
2023-02-14T15:01:48.536Z,20.20
2023-02-14T15:04:19.530Z,20.53
2023-02-14T15:06:47.412Z,19.93
2023-02-14T15:09:31.481Z,19.37
2023-02-14T15:12:21.227Z,19.63
2023-02-14T15:14:54.791Z,21.40
2023-02-14T15:17:25.877Z,20.03
2023-02-14T15:20:00.589Z,21.60
2023-02-14T15:22:30.259Z,20.20
2023-02-14T15:24:58.099Z,20.67
2023-02-14T15:27:27.090Z,22.40
2023-02-14T15:30:01.960Z,20.80
2023-02-14T15:32:32.850Z,21.80
2023-02-14T15:35:03.227Z,22.10
2023-02-14T15:37:30.435Z,20.73
2023-02-14T15:39:58.353Z,21.30
2023-02-14T15:42:29.861Z,21.17
2023-02-14T15:45:27.900Z,22.60
2023-02-14T15:48:05.404Z,21.60
2023-02-14T15:50:42.948Z,21.10
2023-02-14T15:53:29.321Z,20.03
2023-02-14T15:56:03.838Z,20.77
2023-02-14T15:58:32.594Z,22.97
2023-02-14T16:01:00.177Z,20.90
2023-02-14T16:03:30.798Z,22.23
2023-02-14T16:05:57.624Z,26.43
2023-02-14T16:08:41.130Z,23.13
2023-02-14T16:11:26.423Z,23.40
2023-02-14T16:13:53.594Z,27.33
2023-02-14T16:16:20.282Z,22.50
2023-02-14T16:18:53.271Z,25.33
2023-02-14T16:21:28.638Z,25.00
2023-02-14T16:24:15.788Z,24.23
2023-02-14T16:26:44.525Z,23.20
2023-02-14T16:29:13.189Z,23.33
2023-02-14T16:34:41.928Z,23.20
2023-02-14T16:37:22.161Z,24.17
2023-02-14T16:39:51.784Z,23.10
2023-02-14T16:42:18.971Z,23.93
2023-02-14T16:44:47.009Z,24.33
2023-02-14T16:47:15.271Z,24.63
2023-02-14T16:49:42.228Z,25.10
2023-02-14T16:52:23.782Z,27.67
2023-02-14T16:54:50.950Z,25.60
2023-02-14T16:57:27.713Z,26.47
2023-02-14T16:59:56.206Z,26.13
2023-02-14T17:02:23.047Z,26.33
2023-02-14T17:04:49.821Z,24.83
2023-02-14T17:07:16.677Z,26.97
2023-02-14T17:09:48.357Z,27.83
2023-02-14T17:12:20.828Z,26.90
2023-02-14T17:14:51.475Z,24.63
2023-02-14T17:17:18.331Z,25.80
2023-02-14T17:19:45.206Z,24.27
2023-02-14T17:22:13.567Z,24.33
2023-02-14T17:24:41.109Z,25.17
2023-02-14T17:27:08.736Z,24.97
2023-02-14T17:29:35.639Z,26.67
2023-02-14T17:32:02.580Z,25.43
2023-02-14T17:34:33.363Z,23.83
2023-02-14T17:37:00.106Z,24.60
2023-02-14T17:39:26.867Z,24.40
2023-02-14T17:41:53.572Z,24.43
2023-02-14T17:44:20.960Z,25.37
2023-02-14T17:46:47.764Z,25.53
2023-02-14T17:49:14.618Z,27.07
2023-02-14T17:51:41.502Z,25.63
2023-02-14T17:54:08.217Z,25.60
2023-02-14T17:56:34.970Z,24.53
2023-02-14T17:59:01.611Z,25.03
2023-02-14T18:01:31.612Z,26.37
2023-02-14T18:03:58.671Z,27.37
2023-02-14T18:06:26.721Z,26.43
2023-02-14T18:08:56.759Z,26.80
2023-02-14T18:11:26.162Z,26.30
2023-02-14T18:13:58.146Z,25.87
2023-02-14T18:16:25.417Z,27.10
2023-02-14T18:18:52.370Z,26.60
2023-02-14T18:21:24.472Z,26.83
2023-02-14T18:23:51.947Z,25.70
2023-02-14T18:26:19.658Z,27.17
2023-02-14T18:28:46.353Z,27.77
2023-02-14T18:31:16.399Z,25.93
2023-02-14T18:33:43.904Z,25.80
2023-02-14T18:36:14.110Z,24.73
2023-02-14T18:38:42.520Z,27.03
2023-02-14T18:41:15.193Z,39.40
2023-02-14T18:43:42.414Z,34.10
2023-02-14T18:46:21.992Z,27.80
2023-02-14T18:48:49.368Z,27.83
2023-02-14T18:51:19.496Z,27.87
2023-02-14T18:53:47.510Z,25.27
2023-02-14T18:56:17.177Z,26.53
2023-02-14T18:58:47.642Z,27.70
2023-02-14T19:01:22.693Z,28.47
2023-02-14T19:03:50.893Z,27.23
2023-02-14T19:06:18.182Z,25.90
2023-02-14T19:08:45.403Z,24.33
2023-02-14T19:11:14.404Z,26.47
2023-02-14T19:13:45.937Z,26.73
2023-02-14T19:16:15.096Z,27.60
2023-02-14T19:18:41.883Z,26.93
2023-02-14T19:21:16.168Z,28.77
2023-02-14T19:23:43.457Z,27.17
2023-02-14T19:26:14.753Z,25.23
2023-02-14T19:28:43.289Z,27.33
2023-02-14T19:31:10.590Z,24.13
2023-02-14T19:33:42.930Z,25.40
2023-02-14T19:36:14.461Z,23.73
2023-02-14T19:38:42.680Z,25.97
2023-02-14T19:41:39.594Z,25.43
2023-02-14T19:44:09.414Z,25.77
2023-02-14T19:46:38.246Z,25.37
2023-02-14T19:49:05.310Z,26.40
2023-02-14T19:51:35.920Z,23.47
2023-02-14T19:54:05.744Z,25.27
2023-02-14T19:56:34.708Z,22.87
2023-02-14T19:59:07.690Z,25.80
2023-02-14T20:01:42.255Z,25.23
2023-02-14T20:04:12.116Z,25.83
2023-02-14T20:06:38.811Z,23.57
2023-02-14T20:09:06.638Z,26.10
2023-02-14T20:11:50.893Z,24.13
2023-02-14T20:14:29.411Z,21.60
2023-02-14T20:16:57.819Z,23.87
2023-02-14T20:19:27.782Z,22.73
2023-02-14T20:21:55.108Z,24.87
2023-02-14T20:24:32.184Z,25.30
2023-02-14T20:27:00.530Z,23.97
2023-02-14T20:29:27.473Z,23.50
2023-02-14T20:32:01.479Z,21.30
2023-02-14T20:34:28.520Z,24.43
2023-02-14T20:36:56.139Z,24.07
2023-02-14T20:39:30.906Z,24.43
2023-02-14T20:41:57.893Z,26.83
2023-02-14T20:44:24.755Z,25.43
2023-02-14T20:46:53.826Z,24.73
2023-02-14T20:49:22.145Z,24.57
2023-02-14T20:51:49.836Z,24.90
2023-02-14T20:54:20.693Z,24.77
2023-02-14T20:56:48.318Z,24.87
2023-02-14T20:59:15.114Z,24.47
2023-02-14T21:01:41.832Z,25.23
2023-02-14T21:04:08.642Z,27.57
2023-02-14T21:06:36.051Z,25.93
2023-02-14T21:09:04.235Z,25.90
2023-02-14T21:11:31.053Z,25.57
2023-02-14T21:14:00.164Z,25.53
2023-02-14T21:16:28.576Z,25.63
2023-02-14T21:18:59.268Z,25.50
2023-02-14T21:21:36.139Z,23.40
2023-02-14T21:24:08.780Z,24.23
2023-02-14T21:26:36.120Z,22.17
2023-02-14T21:29:03.063Z,23.10
2023-02-14T21:31:29.913Z,22.63
2023-02-14T21:33:58.860Z,22.00
2023-02-14T21:36:28.322Z,21.20
2023-02-14T21:38:58.258Z,22.00
2023-02-14T21:41:27.676Z,21.90
2023-02-14T21:43:56.468Z,21.30
2023-02-14T21:46:27.449Z,22.30
2023-02-14T21:49:13.866Z,24.40
2023-02-14T21:51:41.491Z,24.00
2023-02-14T21:54:09.388Z,23.67
2023-02-14T21:56:37.197Z,22.27
2023-02-14T21:59:04.569Z,25.67
2023-02-14T22:01:34.162Z,22.80
2023-02-14T22:04:01.646Z,24.67
2023-02-14T22:06:28.680Z,24.57
2023-02-14T22:08:57.129Z,23.57
2023-02-14T22:11:26.577Z,23.30
2023-02-14T22:13:53.442Z,22.83
2023-02-14T22:16:21.570Z,23.13
2023-02-14T22:18:48.751Z,22.67
2023-02-14T22:21:18.664Z,22.40
2023-02-14T22:23:45.532Z,20.97
2023-02-14T22:26:23.152Z,21.67
2023-02-14T22:28:51.622Z,22.13
2023-02-14T22:31:19.587Z,20.83
2023-02-14T22:33:47.357Z,23.40
2023-02-14T22:36:14.466Z,22.83
2023-02-14T22:38:41.493Z,20.57
2023-02-14T22:41:17.243Z,20.27
2023-02-14T22:43:44.322Z,22.57
2023-02-14T22:46:17.428Z,24.87
2023-02-14T22:48:44.648Z,22.07
2023-02-14T22:51:12.736Z,22.87
2023-02-14T22:53:39.569Z,22.40
2023-02-14T22:56:17.371Z,20.43
2023-02-14T22:58:44.373Z,23.13
2023-02-14T23:01:20.739Z,22.13
2023-02-14T23:03:48.966Z,21.07
2023-02-14T23:06:15.761Z,20.63
2023-02-14T23:08:44.684Z,20.07
2023-02-14T23:11:17.988Z,20.70
2023-02-14T23:14:03.682Z,21.33
2023-02-14T23:16:49.552Z,22.10
2023-02-14T23:19:40.875Z,21.47
2023-02-14T23:22:09.312Z,22.80
2023-02-14T23:24:36.250Z,22.63
2023-02-14T23:27:03.599Z,21.90
2023-02-14T23:29:30.620Z,22.53
2023-02-14T23:31:57.733Z,22.53
2023-02-14T23:34:26.300Z,21.73
2023-02-14T23:36:53.290Z,23.00
2023-02-14T23:39:20.452Z,20.93
2023-02-14T23:41:47.200Z,21.30
2023-02-14T23:44:19.817Z,22.03
2023-02-14T23:46:52.137Z,21.53
2023-02-14T23:49:19.670Z,20.63
2023-02-14T23:51:47.832Z,25.30
2023-02-14T23:54:14.918Z,22.90
2023-02-14T23:56:42.046Z,24.60
2023-02-14T23:59:10.070Z,25.03
